Time;durP1;ratioP1;P1;durP2;ratioP2;P2;SDS_P1;SDS_P2;PMS_P1;PMS_P2;Temp;Humidity;BMP_temperature;BMP_pressure;BME280_temperature;BME280_humidity;BME280_pressure;Samples;Min_cycle;Max_cycle;Signal;HPM_P1;HPM_P2
2021/10/31 00:00:04;;;;;;;;;11.00;9.25;;;;;13.28;94.66;100338.22;5049163;28;47353;-58
2021/10/31 00:02:30;;;;;;;;;7.50;6.75;;;;;13.25;94.93;100333.16;5054603;28;45669;-58
2021/10/31 00:04:55;;;;;;;;;12.00;10.75;;;;;13.22;95.04;100338.53;5057250;28;45906;-57
2021/10/31 00:07:21;;;;;;;;;12.50;10.50;;;;;13.20;94.84;100335.94;5059666;28;45181;-58
2021/10/31 00:09:46;;;;;;;;;9.75;9.25;;;;;13.21;95.18;100331.56;5059428;28;46102;-58
2021/10/31 00:12:12;;;;;;;;;9.50;9.25;;;;;13.16;94.95;100328.31;5059476;28;45149;-57
2021/10/31 00:14:37;;;;;;;;;13.25;10.50;;;;;13.17;95.04;100324.78;5059577;28;45409;-58
2021/10/31 00:17:04;;;;;;;;;6.75;6.75;;;;;13.15;95.09;100330.06;5059449;28;45460;-58
2021/10/31 00:19:29;;;;;;;;;12.75;10.50;;;;;13.12;95.25;100321.53;5059266;28;46462;-58
2021/10/31 00:21:55;;;;;;;;;11.25;10.25;;;;;13.06;95.28;100330.50;5059368;28;45316;-58
2021/10/31 00:24:21;;;;;;;;;12.50;10.50;;;;;13.06;95.48;100326.13;5049478;28;45477;-58
2021/10/31 00:26:47;;;;;;;;;15.50;11.75;;;;;13.07;95.32;100327.81;5059294;28;45415;-58
2021/10/31 00:29:13;;;;;;;;;10.25;10.00;;;;;13.06;95.48;100326.13;5050467;28;46358;-58
2021/10/31 00:31:38;;;;;;;;;12.00;9.75;;;;;13.07;95.41;100329.56;5059131;28;45429;-58
2021/10/31 00:34:04;;;;;;;;;18.25;13.75;;;;;13.06;95.59;100322.66;5059213;28;45282;-58
2021/10/31 00:36:29;;;;;;;;;11.00;11.00;;;;;13.05;95.69;100327.03;5049386;28;45202;-57
2021/10/31 00:38:54;;;;;;;;;8.75;8.25;;;;;13.04;95.66;100325.34;5059664;28;45870;-57
2021/10/31 00:41:20;;;;;;;;;11.75;11.25;;;;;13.04;95.65;100332.31;5060617;28;45364;-58
2021/10/31 00:43:45;;;;;;;;;7.75;7.25;;;;;13.03;95.60;100323.66;5062000;28;45488;-58
2021/10/31 00:46:11;;;;;;;;;8.75;6.75;;;;;13.02;95.78;100331.53;5062250;28;45292;-58
2021/10/31 00:48:36;;;;;;;;;11.00;11.00;;;;;13.01;95.75;100332.44;5061815;28;45422;-58
2021/10/31 00:51:02;;;;;;;;;12.50;12.00;;;;;13.00;95.79;100335.94;5062572;28;45267;-58
2021/10/31 00:53:28;;;;;;;;;15.00;13.50;;;;;12.98;95.46;100335.19;5062085;28;45236;-59
2021/10/31 00:55:53;;;;;;;;;15.00;14.00;;;;;12.94;95.64;100337.06;5062120;28;45457;-58
2021/10/31 00:58:19;;;;;;;;;14.00;13.00;;;;;12.90;95.77;100319.03;5058980;28;46415;-58
2021/10/31 01:00:46;;;;;;;;;15.25;12.75;;;;;12.89;95.75;100319.94;5060169;28;45749;-58
2021/10/31 01:03:11;;;;;;;;;21.75;18.50;;;;;12.88;96.00;100323.47;5057616;28;45789;-59
2021/10/31 01:05:48;;;;;;;;;14.75;13.00;;;;;12.86;96.11;100322.69;5060193;28;45813;-59
2021/10/31 01:08:49;;;;;;;;;12.00;12.00;;;;;12.84;96.02;100314.94;5059717;28;47086;-58
2021/10/31 01:11:20;;;;;;;;;12.75;10.75;;;;;12.83;96.11;100310.63;5059874;28;45888;-58
2021/10/31 01:14:27;;;;;;;;;11.50;11.50;;;;;12.85;96.49;100303.59;5062537;28;45216;-58
2021/10/31 01:16:58;;;;;;;;;11.75;9.25;;;;;12.84;96.14;100320.16;5056437;28;45216;-59
2021/10/31 01:20:05;;;;;;;;;12.50;11.50;;;;;12.85;96.12;100314.03;5062140;28;45263;-58
2021/10/31 01:23:01;;;;;;;;;12.00;10.00;;;;;12.85;96.13;100308.81;5060617;28;45811;-58
2021/10/31 01:25:54;;;;;;;;;12.00;10.25;;;;;12.83;96.16;100308.03;5056830;28;45271;-59
2021/10/31 01:28:45;;;;;;;;;15.00;9.00;;;;;12.83;95.95;100307.19;5062237;28;45468;-59
2021/10/31 01:31:28;;;;;;;;;10.00;6.50;;;;;12.84;95.96;100308.88;5041587;28;45440;-59
2021/10/31 01:34:40;;;;;;;;;7.50;7.25;;;;;12.84;95.93;100307.09;5059234;28;45415;-58
2021/10/31 01:37:18;;;;;;;;;10.25;9.75;;;;;12.84;96.06;100298.44;5029109;28;45323;-59
2021/10/31 01:39:55;;;;;;;;;11.75;9.25;;;;;12.79;95.92;100296.84;5062107;28;45223;-58
2021/10/31 01:42:42;;;;;;;;;11.00;9.75;;;;;12.79;96.20;100291.63;5061102;28;46222;-59
2021/10/31 01:45:47;;;;;;;;;12.75;9.25;;;;;12.78;96.22;100289.09;5061621;28;45343;-58
2021/10/31 01:48:41;;;;;;;;;8.00;8.00;;;;;12.75;95.99;100284.03;5034388;28;45501;-58
2021/10/31 01:51:14;;;;;;;;;10.25;9.00;;;;;12.73;96.19;100286.69;5061417;28;45437;-58
2021/10/31 01:53:56;;;;;;;;;11.25;8.50;;;;;12.75;96.05;100276.19;5060725;28;45395;-58
2021/10/31 01:56:23;;;;;;;;;9.00;8.50;;;;;12.75;95.97;100278.81;5061464;28;45267;-58
2021/10/31 01:59:09;;;;;;;;;10.25;10.25;;;;;12.74;96.17;100275.34;5061825;28;45520;-58
2021/10/31 02:01:37;;;;;;;;;11.00;10.00;;;;;12.73;96.03;100280.66;5060064;28;45402;-58
2021/10/31 02:04:06;;;;;;;;;8.00;8.00;;;;;12.73;96.03;100272.81;5060070;28;45339;-58
2021/10/31 02:06:36;;;;;;;;;10.75;8.25;;;;;12.73;96.12;100265.84;5061460;28;45487;-58
2021/10/31 02:09:02;;;;;;;;;9.00;8.00;;;;;12.72;95.79;100266.75;5061509;28;45399;-58
2021/10/31 02:11:29;;;;;;;;;14.00;8.75;;;;;12.71;95.93;100267.69;5060987;28;45291;-58
2021/10/31 02:13:58;;;;;;;;;9.00;6.50;;;;;12.69;96.03;100264.28;5061482;28;46352;-58
2021/10/31 02:16:25;;;;;;;;;14.25;9.00;;;;;12.69;95.86;100268.66;5061229;28;45760;-58
2021/10/31 02:18:56;;;;;;;;;9.00;8.50;;;;;12.65;96.08;100264.50;5061672;28;45304;-58
2021/10/31 02:21:26;;;;;;;;;10.00;9.00;;;;;12.64;95.99;100262.81;5061145;28;45954;-58
2021/10/31 02:23:52;;;;;;;;;9.50;9.50;;;;;12.62;96.15;100264.63;5053138;28;45378;-58
2021/10/31 02:26:18;;;;;;;;;10.25;9.75;;;;;12.59;96.13;100255.16;5061066;28;45653;-58
2021/10/31 02:28:58;;;;;;;;;10.50;9.50;;;;;12.59;96.14;100256.91;5061294;28;45526;-58
2021/10/31 02:31:25;;;;;;;;;11.75;9.25;;;;;12.54;96.22;100257.13;5062206;28;45419;-58
2021/10/31 02:33:51;;;;;;;;;11.00;8.50;;;;;12.54;96.32;100259.72;5054092;28;46103;-58
2021/10/31 02:36:17;;;;;;;;;10.75;8.75;;;;;12.53;96.11;100262.41;5054298;28;45500;-57
2021/10/31 02:38:43;;;;;;;;;9.75;8.00;;;;;12.53;96.12;100260.66;5056541;28;45398;-58
2021/10/31 02:41:09;;;;;;;;;11.25;10.00;;;;;12.52;96.38;100253.75;5060903;28;45522;-58
2021/10/31 02:43:36;;;;;;;;;10.00;8.00;;;;;12.50;96.20;100242.53;5060786;28;46063;-58
2021/10/31 02:46:02;;;;;;;;;11.00;10.25;;;;;12.49;96.39;100241.69;5060936;28;45227;-57
2021/10/31 02:48:28;;;;;;;;;12.25;11.25;;;;;12.49;96.12;100233.03;5059635;28;45258;-58
2021/10/31 02:51:01;;;;;;;;;14.00;11.50;;;;;12.43;96.39;100228.94;5060961;28;45465;-58
2021/10/31 02:53:42;;;;;;;;;17.00;11.50;;;;;12.43;96.17;100225.50;5057689;28;45366;-58
2021/10/31 02:56:24;;;;;;;;;13.50;12.25;;;;;12.39;96.31;100222.13;5059331;28;45827;-58
2021/10/31 02:59:23;;;;;;;;;16.50;12.50;;;;;12.35;96.34;100223.19;5059755;28;45447;-58
2021/10/31 03:01:50;;;;;;;;;14.25;11.00;;;;;12.31;96.65;100211.22;5059094;28;45390;-58
2021/10/31 03:04:17;;;;;;;;;16.00;12.75;;;;;12.29;96.92;100218.25;5059405;28;46218;-58
2021/10/31 03:06:44;;;;;;;;;16.75;11.50;;;;;12.27;96.76;100220.09;5060616;28;45292;-58
2021/10/31 03:09:10;;;;;;;;;12.00;11.75;;;;;12.26;96.81;100214.94;5060528;28;45485;-58
2021/10/31 03:11:35;;;;;;;;;15.25;13.00;;;;;12.25;97.10;100197.63;5058946;28;45375;-57
2021/10/31 03:14:01;;;;;;;;;17.25;14.25;;;;;12.24;97.05;100191.56;5060469;28;45343;-57
2021/10/31 03:16:26;;;;;;;;;16.50;12.75;;;;;12.24;96.97;100185.50;5060250;28;45296;-57
2021/10/31 03:18:51;;;;;;;;;15.75;13.00;;;;;12.22;97.09;100192.53;5060712;28;45434;-58
2021/10/31 03:21:17;;;;;;;;;12.25;11.25;;;;;12.21;97.11;100191.66;5059158;28;45359;-58
2021/10/31 03:23:42;;;;;;;;;14.25;12.00;;;;;12.18;97.37;100184.84;5052249;28;45335;-58
2021/10/31 03:26:07;;;;;;;;;18.75;14.50;;;;;12.15;97.09;100178.91;5060009;28;45341;-58
2021/10/31 03:28:33;;;;;;;;;11.50;10.50;;;;;12.15;97.31;100189.34;5060410;28;45299;-57
2021/10/31 03:30:58;;;;;;;;;15.25;12.25;;;;;12.12;97.50;100171.22;5060191;28;45358;-58
2021/10/31 03:33:24;;;;;;;;;12.75;10.75;;;;;12.11;97.34;100164.34;5060160;28;46305;-57
2021/10/31 03:35:51;;;;;;;;;11.75;11.00;;;;;12.09;97.21;100168.78;5055503;28;45215;-57
2021/10/31 03:38:18;;;;;;;;;11.25;10.25;;;;;12.07;97.50;100173.19;5053162;28;45339;-57
2021/10/31 03:40:44;;;;;;;;;11.00;7.25;;;;;12.05;97.56;100172.41;5059920;28;45539;-57
2021/10/31 03:43:09;;;;;;;;;15.00;12.75;;;;;12.02;97.54;100156.94;5060062;28;46555;-57
2021/10/31 03:45:35;;;;;;;;;15.25;15.00;;;;;12.00;97.47;100158.72;5059870;28;45406;-57
2021/10/31 03:48:03;;;;;;;;;10.25;10.00;;;;;11.97;97.53;100158.84;5061055;28;45240;-57
2021/10/31 03:50:28;;;;;;;;;16.50;14.25;;;;;11.93;97.96;100160.75;5058572;28;45590;-57
2021/10/31 03:52:55;;;;;;;;;17.25;14.00;;;;;11.88;97.94;100152.28;5059282;28;45411;-57
2021/10/31 03:55:20;;;;;;;;;16.75;16.75;;;;;11.88;98.06;100150.53;5059950;28;45820;-57
2021/10/31 03:57:46;;;;;;;;;17.25;16.25;;;;;11.90;98.11;100154.84;5060231;28;45228;-57
2021/10/31 04:00:13;;;;;;;;;20.00;16.25;;;;;11.91;98.23;100152.16;5060026;28;45367;-57
2021/10/31 04:02:39;;;;;;;;;20.25;16.00;;;;;11.96;98.37;100150.19;5059487;28;46396;-57
2021/10/31 04:05:06;;;;;;;;;20.75;14.25;;;;;11.98;98.57;100152.75;5058314;28;45354;-57
2021/10/31 04:07:31;;;;;;;;;23.25;19.50;;;;;11.97;98.40;100151.88;5059507;28;45418;-57
2021/10/31 04:09:57;;;;;;;;;20.00;17.50;;;;;12.03;98.52;100149.06;5059483;28;45256;-57
2021/10/31 04:12:23;;;;;;;;;17.00;11.75;;;;;12.05;98.21;100149.81;5058696;28;46092;-58
2021/10/31 04:14:48;;;;;;;;;19.75;13.00;;;;;12.07;98.19;100145.41;5059330;28;45415;-58
2021/10/31 04:17:13;;;;;;;;;30.00;23.00;;;;;12.10;98.35;100140.03;5058143;28;45454;-58
2021/10/31 04:19:39;;;;;;;;;23.50;18.50;;;;;12.09;98.26;100132.31;5058222;28;45363;-58
2021/10/31 04:22:04;;;;;;;;;23.00;19.75;;;;;12.11;98.11;100120.06;5058854;28;46077;-57
2021/10/31 04:24:30;;;;;;;;;23.50;19.75;;;;;12.17;98.18;100125.00;5051172;28;45389;-57
2021/10/31 04:27:01;;;;;;;;;20.50;17.50;;;;;12.18;98.10;100122.31;5058151;28;45329;-57
2021/10/31 04:29:26;;;;;;;;;21.50;18.00;;;;;12.17;98.08;100125.00;5059461;28;45337;-57
2021/10/31 04:31:52;;;;;;;;;19.00;18.75;;;;;12.13;98.40;100123.44;5058331;28;45275;-57
2021/10/31 04:34:18;;;;;;;;;22.00;18.75;;;;;12.16;98.66;100115.47;5059287;28;45968;-57
2021/10/31 04:36:44;;;;;;;;;24.75;19.25;;;;;12.19;98.36;100112.75;5048428;28;45512;-57
2021/10/31 04:39:10;;;;;;;;;22.25;18.25;;;;;12.18;98.67;100111.03;5040294;28;45244;-58
2021/10/31 04:41:35;;;;;;;;;22.75;18.00;;;;;12.19;98.50;100113.59;5053547;28;46109;-58
2021/10/31 04:44:01;;;;;;;;;24.00;17.25;;;;;12.20;98.64;100111.81;5059170;28;45273;-58
2021/10/31 04:46:26;;;;;;;;;22.75;20.25;;;;;12.25;98.78;100116.84;5059232;28;45481;-58
2021/10/31 04:48:51;;;;;;;;;23.25;17.50;;;;;12.27;98.75;100115.03;5059264;28;45497;-58
2021/10/31 04:51:18;;;;;;;;;18.00;16.25;;;;;12.29;98.77;100114.03;5058959;28;45990;-58
2021/10/31 04:53:43;;;;;;;;;26.25;19.00;;;;;12.29;99.00;100115.81;5058845;28;45227;-57
2021/10/31 04:56:09;;;;;;;;;21.75;19.00;;;;;12.27;98.92;100104.59;5058610;28;45787;-58
2021/10/31 04:58:34;;;;;;;;;20.00;18.25;;;;;12.27;99.10;100112.41;5058843;28;45307;-57
2021/10/31 05:01:00;;;;;;;;;21.50;16.75;;;;;12.26;99.18;100108.13;5058637;28;45309;-58
2021/10/31 05:03:25;;;;;;;;;22.00;18.50;;;;;12.23;99.08;100088.28;5057613;28;45395;-57
2021/10/31 05:05:51;;;;;;;;;22.50;18.50;;;;;12.25;99.36;100086.44;5059136;28;45342;-58
2021/10/31 05:08:16;;;;;;;;;18.25;16.25;;;;;12.28;99.39;100083.69;5058544;28;45489;-58
2021/10/31 05:10:42;;;;;;;;;22.25;17.75;;;;;12.30;99.28;100079.25;5058670;28;45318;-58
2021/10/31 05:13:08;;;;;;;;;16.50;15.50;;;;;12.31;99.29;100064.47;5058577;28;45272;-58
2021/10/31 05:15:33;;;;;;;;;17.00;14.75;;;;;12.34;99.31;100065.16;5058915;28;45323;-58
2021/10/31 05:17:59;;;;;;;;;20.00;15.25;;;;;12.35;99.50;100055.59;5058695;28;45484;-57
2021/10/31 05:20:24;;;;;;;;;19.00;15.50;;;;;12.39;99.62;100051.91;5058768;28;45292;-57
2021/10/31 05:22:50;;;;;;;;;17.25;14.00;;;;;12.44;99.40;100055.19;5056676;28;45288;-57
2021/10/31 05:25:15;;;;;;;;;17.50;12.75;;;;;12.44;99.24;100037.78;5052016;28;45394;-57
2021/10/31 05:27:41;;;;;;;;;17.25;12.25;;;;;12.45;99.14;100036.03;5061887;28;45360;-57
2021/10/31 05:30:09;;;;;;;;;11.75;11.75;;;;;12.45;99.40;100023.84;5063187;28;46013;-57
2021/10/31 05:32:36;;;;;;;;;7.25;6.50;;;;;12.49;99.33;100024.53;5059410;28;45451;-57
2021/10/31 05:35:03;;;;;;;;;11.25;11.25;;;;;12.56;99.20;100027.69;5060938;28;45334;-57
2021/10/31 05:37:37;;;;;;;;;15.75;12.25;;;;;12.57;99.35;100022.41;5050966;28;45276;-57
2021/10/31 05:40:05;;;;;;;;;11.25;11.25;;;;;12.59;99.35;100019.72;5062874;28;47546;-57
2021/10/31 05:42:31;;;;;;;;;13.25;12.75;;;;;12.59;99.11;100010.13;5054444;28;45527;-57
2021/10/31 05:44:57;;;;;;;;;13.00;11.50;;;;;12.61;99.45;100008.31;5061650;28;45278;-57
2021/10/31 05:47:22;;;;;;;;;15.50;13.50;;;;;12.60;99.28;100009.22;5061313;28;45227;-58
2021/10/31 05:49:48;;;;;;;;;12.00;12.00;;;;;12.60;99.44;100003.16;5061571;28;45416;-57
2021/10/31 05:52:14;;;;;;;;;13.50;11.50;;;;;12.59;99.52;100001.47;5061274;28;45214;-57
2021/10/31 05:54:39;;;;;;;;;15.75;14.75;;;;;12.65;99.51;100011.63;5059316;28;45412;-57
2021/10/31 05:57:05;;;;;;;;;13.25;11.00;;;;;12.65;99.39;100007.25;5060830;28;45324;-57
2021/10/31 05:59:30;;;;;;;;;12.50;12.50;;;;;12.63;99.43;99997.84;5058496;28;47245;-57
2021/10/31 06:01:55;;;;;;;;;18.75;12.00;;;;;12.59;99.32;100002.31;5060290;28;45432;-57
2021/10/31 06:04:24;;;;;;;;;12.25;11.00;;;;;12.60;99.76;100000.56;5060200;28;45447;-57
2021/10/31 06:06:49;;;;;;;;;11.25;10.25;;;;;12.62;99.59;99990.94;5061242;28;45295;-57
2021/10/31 06:09:15;;;;;;;;;14.75;10.75;;;;;12.65;99.52;99975.13;5061378;28;47273;-57
2021/10/31 06:11:40;;;;;;;;;17.50;13.00;;;;;12.68;99.72;99970.63;5060884;28;45491;-58
2021/10/31 06:14:05;;;;;;;;;12.50;11.25;;;;;12.70;99.58;99958.34;5057840;28;45298;-58
2021/10/31 06:16:31;;;;;;;;;19.25;11.50;;;;;12.71;99.37;99960.03;5061490;28;45636;-58
2021/10/31 06:18:56;;;;;;;;;13.50;12.00;;;;;12.72;99.56;99956.50;5061460;28;45454;-58
2021/10/31 06:21:22;;;;;;;;;13.00;12.00;;;;;12.74;99.53;99956.44;5055059;28;45223;-58
2021/10/31 06:23:47;;;;;;;;;10.75;10.75;;;;;12.75;99.47;99971.16;5054236;28;45199;-58
2021/10/31 06:26:12;;;;;;;;;12.75;11.50;;;;;12.76;99.65;99965.84;5050867;28;45225;-58
2021/10/31 06:28:38;;;;;;;;;7.00;7.00;;;;;12.78;99.53;99968.38;5051078;28;45210;-59
2021/10/31 06:31:03;;;;;;;;;10.25;10.25;;;;;12.74;99.48;99975.53;5053102;28;45205;-58
2021/10/31 06:33:29;;;;;;;;;11.75;10.75;;;;;12.76;99.89;99972.84;5051303;28;45264;-59
2021/10/31 06:35:54;;;;;;;;;12.75;9.75;;;;;12.80;99.89;99967.38;5050192;28;45354;-58
2021/10/31 06:38:21;;;;;;;;;6.75;6.75;;;;;12.87;99.71;99951.47;5049355;28;45962;-58
2021/10/31 06:40:46;;;;;;;;;9.00;8.75;;;;;12.90;99.64;99943.50;5048453;28;45534;-58
2021/10/31 06:43:11;;;;;;;;;11.25;10.50;;;;;12.88;99.34;99927.91;5044129;28;45509;-58
2021/10/31 06:45:37;;;;;;;;;11.00;9.50;;;;;12.97;99.07;99924.00;5045693;28;45416;-58
2021/10/31 06:48:05;;;;;;;;;13.00;11.25;;;;;12.96;99.63;99927.53;5050472;28;46329;-58
2021/10/31 06:50:30;;;;;;;;;7.00;7.00;;;;;12.94;99.40;99914.56;5054384;28;45705;-58
2021/10/31 06:52:55;;;;;;;;;11.00;9.50;;;;;12.98;99.33;99910.03;5060553;28;45324;-58
2021/10/31 06:55:21;;;;;;;;;9.75;7.75;;;;;12.98;99.44;99915.25;5060969;28;45256;-58
2021/10/31 06:57:46;;;;;;;;;14.50;11.50;;;;;12.98;99.38;99916.09;5059189;28;45192;-58
2021/10/31 07:00:12;;;;;;;;;9.25;8.75;;;;;12.98;99.50;99908.28;5054221;28;45498;-58
2021/10/31 07:02:38;;;;;;;;;16.25;8.00;;;;;12.97;99.33;99896.16;5051439;28;45460;-58
2021/10/31 07:05:04;;;;;;;;;13.50;12.00;;;;;12.98;99.49;99897.84;5050643;28;45308;-58
2021/10/31 07:07:29;;;;;;;;;7.75;7.25;;;;;12.97;99.76;99888.31;5049484;28;46232;-58
2021/10/31 07:09:55;;;;;;;;;12.25;7.25;;;;;12.98;99.71;99878.75;5049130;28;45314;-58
2021/10/31 07:12:20;;;;;;;;;9.25;7.00;;;;;12.99;99.98;99870.84;5051002;28;45555;-58
2021/10/31 07:14:46;;;;;;;;;13.00;10.00;;;;;13.02;99.58;99880.28;5051306;28;45575;-58
2021/10/31 07:17:11;;;;;;;;;10.00;7.25;;;;;12.99;99.78;99881.25;5052738;28;46159;-58
2021/10/31 07:19:37;;;;;;;;;11.75;11.00;;;;;12.99;99.78;99894.31;5061507;28;45410;-58
2021/10/31 07:22:02;;;;;;;;;10.25;6.25;;;;;13.00;99.97;99887.31;5060080;28;45268;-58
2021/10/31 07:24:28;;;;;;;;;9.00;8.50;;;;;13.00;100.00;99889.94;5051242;28;45312;-58
2021/10/31 07:26:53;;;;;;;;;11.25;11.25;;;;;13.03;99.83;99888.03;5060114;28;45331;-58
2021/10/31 07:29:19;;;;;;;;;10.50;9.50;;;;;13.07;100.00;99886.94;5060202;28;45429;-58
2021/10/31 07:31:47;;;;;;;;;12.25;10.00;;;;;13.14;99.79;99884.84;5050940;28;45348;-59
2021/10/31 07:34:12;;;;;;;;;14.00;11.50;;;;;13.17;99.92;99883.84;5048685;28;45241;-58
2021/10/31 07:36:40;;;;;;;;;9.75;9.75;;;;;13.20;99.76;99878.50;5050915;28;45394;-58
2021/10/31 07:39:06;;;;;;;;;11.25;10.25;;;;;13.24;99.79;99870.47;5049920;28;46601;-58
2021/10/31 07:41:32;;;;;;;;;9.75;8.75;;;;;13.26;99.29;99862.56;5048476;28;45319;-58
2021/10/31 07:43:57;;;;;;;;;10.00;10.00;;;;;13.26;99.47;99860.78;5049195;28;45347;-58
2021/10/31 07:46:23;;;;;;;;;9.25;6.25;;;;;13.23;99.43;99847.06;5048557;28;46178;-58
2021/10/31 07:48:49;;;;;;;;;9.75;8.00;;;;;13.27;99.43;99852.03;5047248;28;45338;-58
2021/10/31 07:51:14;;;;;;;;;10.75;9.75;;;;;13.34;99.30;99857.75;5056873;28;45299;-58
2021/10/31 07:53:42;;;;;;;;;11.75;10.50;;;;;13.42;99.55;99854.75;5059205;28;45204;-59
2021/10/31 07:56:14;;;;;;;;;32.00;27.00;;;;;13.48;99.36;99855.28;5060600;28;46375;-58
2021/10/31 07:58:42;;;;;;;;;9.50;8.50;;;;;13.51;99.13;99851.66;5059840;28;45333;-60
2021/10/31 08:01:09;;;;;;;;;13.00;11.00;;;;;13.52;99.07;99842.88;5059363;28;45236;-59
2021/10/31 08:03:34;;;;;;;;;6.25;6.25;;;;;13.52;99.00;99841.13;5058077;28;45599;-60
2021/10/31 08:06:00;;;;;;;;;10.25;7.00;;;;;13.56;98.96;99834.81;5059449;28;46026;-59
2021/10/31 08:08:26;;;;;;;;;9.00;6.00;;;;;13.58;98.59;99829.50;5059341;28;45461;-61
2021/10/31 08:10:52;;;;;;;;;10.75;8.00;;;;;13.59;98.32;99833.78;5059431;28;45305;-59
2021/10/31 08:13:23;;;;;;;;;12.00;5.50;;;;;13.62;98.61;99818.00;5059595;28;45260;-59
2021/10/31 08:15:49;;;;;;;;;12.50;11.50;;;;;13.68;98.49;99815.88;5059356;28;46029;-59
2021/10/31 08:18:15;;;;;;;;;9.25;6.75;;;;;13.73;98.38;99815.63;5059635;28;45436;-58
2021/10/31 08:20:40;;;;;;;;;16.75;11.00;;;;;13.76;98.63;99815.44;5059499;28;45337;-60
2021/10/31 08:23:06;;;;;;;;;7.50;5.00;;;;;13.77;98.19;99808.44;5055215;28;45394;-60
2021/10/31 08:25:31;;;;;;;;;10.50;7.75;;;;;13.78;97.76;99803.13;5054359;28;46282;-60
2021/10/31 08:27:57;;;;;;;;;10.75;8.00;;;;;13.86;98.07;99802.72;5059232;28;45479;-60
2021/10/31 08:30:30;;;;;;;;;10.00;7.50;;;;;13.84;97.46;99802.81;5060528;28;45338;-59
2021/10/31 08:33:00;;;;;;;;;7.25;7.25;;;;;13.89;97.17;99800.78;5059328;28;45309;-62
2021/10/31 08:35:25;;;;;;;;;10.00;10.00;;;;;13.91;97.09;99791.09;5056001;28;47364;-65
2021/10/31 08:37:51;;;;;;;;;9.50;7.00;;;;;13.95;96.79;99789.97;5045666;28;45732;-57
2021/10/31 08:40:16;;;;;;;;;6.75;5.75;;;;;13.95;96.89;99797.81;5057823;28;45300;-59
2021/10/31 08:42:41;;;;;;;;;10.75;7.75;;;;;13.98;96.51;99778.50;5057746;28;45618;-60
2021/10/31 08:45:11;;;;;;;;;9.00;7.00;;;;;14.03;96.55;99786.94;5058964;28;45288;-59
2021/10/31 08:47:36;;;;;;;;;8.25;7.00;;;;;14.06;96.33;99775.47;5059143;28;45327;-60
2021/10/31 08:50:03;;;;;;;;;10.50;9.00;;;;;14.09;96.24;99765.69;5049067;28;45541;-59
2021/10/31 08:52:29;;;;;;;;;10.75;9.00;;;;;14.11;96.25;99766.44;5057864;28;45413;-58
2021/10/31 08:54:54;;;;;;;;;11.50;8.00;;;;;14.20;95.99;99771.13;5058795;28;46121;-59
2021/10/31 08:57:20;;;;;;;;;7.00;7.00;;;;;14.26;95.89;99767.34;5058634;28;45249;-59
2021/10/31 08:59:45;;;;;;;;;9.00;7.50;;;;;14.24;95.56;99758.75;5059814;28;45239;-59
2021/10/31 09:02:11;;;;;;;;;7.50;7.50;;;;;14.26;95.24;99736.81;5062239;28;45355;-59
2021/10/31 09:04:39;;;;;;;;;7.50;7.00;;;;;14.23;95.32;99725.72;5060869;28;45602;-58
2021/10/31 09:07:14;;;;;;;;;11.50;8.25;;;;;14.32;95.50;99718.16;5062195;28;45370;-59
2021/10/31 09:09:39;;;;;;;;;8.75;7.00;;;;;14.40;95.10;99722.06;5061828;28;45331;-58
2021/10/31 09:12:05;;;;;;;;;8.00;5.00;;;;;14.49;94.75;99716.34;5060394;28;45499;-58
2021/10/31 09:14:31;;;;;;;;;8.25;7.00;;;;;14.53;94.74;99720.44;5058941;28;47517;-60
2021/10/31 09:16:56;;;;;;;;;9.75;8.50;;;;;14.60;94.74;99706.91;5061794;28;45272;-58
2021/10/31 09:19:21;;;;;;;;;9.00;8.25;;;;;14.70;94.76;99696.75;5062639;28;45459;-57
2021/10/31 09:21:47;;;;;;;;;10.50;9.00;;;;;14.84;94.23;99701.13;5057923;28;45540;-61
2021/10/31 09:24:12;;;;;;;;;8.50;8.00;;;;;14.90;92.52;99672.81;5054229;28;46257;-58
2021/10/31 09:26:38;;;;;;;;;8.00;8.00;;;;;14.97;93.41;99677.66;5056240;28;45386;-61
2021/10/31 09:29:04;;;;;;;;;10.25;7.00;;;;;15.12;93.79;99672.31;5060613;28;45410;-60
2021/10/31 09:31:30;;;;;;;;;7.50;7.50;;;;;15.29;92.75;99681.72;5061614;28;45430;-59
2021/10/31 09:33:56;;;;;;;;;6.25;6.25;;;;;15.47;93.00;99687.56;5059820;28;46988;-59
2021/10/31 09:36:22;;;;;;;;;6.25;6.25;;;;;15.67;91.24;99683.69;5053171;28;45292;-58
2021/10/31 09:38:48;;;;;;;;;7.50;7.50;;;;;15.76;91.82;99696.16;5056934;28;45234;-58
2021/10/31 09:41:15;;;;;;;;;9.50;8.00;;;;;15.84;91.38;99669.47;5061415;28;45416;-58
2021/10/31 09:43:53;;;;;;;;;7.50;5.25;;;;;15.93;90.69;99661.00;5061452;28;46067;-58
2021/10/31 09:46:19;;;;;;;;;9.25;7.75;;;;;16.07;90.33;99674.84;5061443;28;45461;-57
2021/10/31 09:48:45;;;;;;;;;8.25;6.00;;;;;16.23;89.17;99645.00;5061130;28;45465;-57
2021/10/31 09:51:10;;;;;;;;;5.50;5.50;;;;;16.27;89.97;99628.94;5061398;28;45456;-62
2021/10/31 09:53:36;;;;;;;;;5.75;5.75;;;;;16.33;89.08;99627.66;5061027;28;45386;-58
2021/10/31 09:56:02;;;;;;;;;7.25;4.25;;;;;16.39;88.08;99641.19;5061229;28;45220;-58
2021/10/31 09:58:35;;;;;;;;;8.25;6.00;;;;;16.43;84.71;99629.56;5059518;28;45197;-58
2021/10/31 10:01:06;;;;;;;;;5.00;5.00;;;;;16.48;86.99;99605.63;5057094;28;45367;-58
2021/10/31 10:03:35;;;;;;;;;7.25;5.50;;;;;16.66;85.82;99600.88;5058375;28;46417;-59
2021/10/31 10:06:20;;;;;;;;;6.25;5.00;;;;;16.72;85.60;99603.09;5059964;28;45469;-58
2021/10/31 10:09:06;;;;;;;;;6.25;4.75;;;;;16.78;82.84;99581.66;5061270;28;45357;-61
2021/10/31 10:11:36;;;;;;;;;4.75;4.75;;;;;16.79;83.52;99598.25;5060508;28;45288;-61
2021/10/31 10:14:17;;;;;;;;;5.00;3.50;;;;;16.93;80.87;99582.38;5061073;28;46283;-61
2021/10/31 10:16:43;;;;;;;;;5.75;4.75;;;;;17.06;82.47;99591.03;5055690;28;45458;-59
2021/10/31 10:19:17;;;;;;;;;6.00;4.00;;;;;17.15;81.12;99589.50;5055813;28;45292;-63
2021/10/31 10:21:43;;;;;;;;;3.75;3.75;;;;;17.12;78.89;99582.69;5059788;28;45235;-62
2021/10/31 10:24:12;;;;;;;;;4.00;4.00;;;;;17.08;80.33;99583.03;5051859;28;45307;-60
2021/10/31 10:26:42;;;;;;;;;3.75;3.75;;;;;17.10;83.08;99578.53;5056803;28;46633;-58
2021/10/31 10:29:19;;;;;;;;;3.25;3.00;;;;;17.20;82.44;99574.25;5060945;28;45303;-59
2021/10/31 10:32:06;;;;;;;;;3.00;3.00;;;;;17.45;80.25;99555.75;5049956;28;45867;-59
2021/10/31 10:34:53;;;;;;;;;5.25;4.75;;;;;17.74;81.68;99550.13;5051003;28;46183;-61
2021/10/31 10:37:22;;;;;;;;;4.25;4.00;;;;;18.13;79.45;99546.22;5048094;28;46549;-60
2021/10/31 10:39:55;;;;;;;;;4.00;3.00;;;;;18.48;75.78;99546.94;5049795;28;45466;-62
2021/10/31 10:42:32;;;;;;;;;3.75;3.75;;;;;18.59;76.71;99547.84;5050811;28;45469;-59
2021/10/31 10:45:07;;;;;;;;;4.25;4.25;;;;;18.53;76.68;99544.75;5047812;28;46608;-59
2021/10/31 10:47:39;;;;;;;;;3.75;3.75;;;;;18.52;76.97;99537.81;5048458;28;45530;-59
2021/10/31 10:50:05;;;;;;;;;2.00;2.00;;;;;18.39;75.49;99533.66;5045119;28;45229;-59
2021/10/31 10:52:40;;;;;;;;;3.75;2.50;;;;;18.28;76.95;99533.69;5050511;28;45583;-60
2021/10/31 10:55:10;;;;;;;;;2.00;2.00;;;;;18.33;76.94;99531.50;5057394;28;47193;-59
2021/10/31 10:57:37;;;;;;;;;5.00;2.75;;;;;18.31;76.88;99528.16;5051078;28;45524;-60
2021/10/31 11:00:10;;;;;;;;;5.75;3.00;;;;;18.28;77.78;99529.25;5049957;28;45366;-59
2021/10/31 11:02:36;;;;;;;;;3.00;2.25;;;;;18.24;78.72;99518.16;5050221;28;45419;-60
2021/10/31 11:05:08;;;;;;;;;4.25;4.00;;;;;18.28;78.73;99531.03;5046995;28;45267;-60
2021/10/31 11:07:38;;;;;;;;;2.75;2.75;;;;;18.31;79.40;99520.28;5060542;28;45223;-60
2021/10/31 11:10:14;;;;;;;;;3.75;3.75;;;;;18.37;79.21;99522.41;5061231;28;45276;-60
2021/10/31 11:12:41;;;;;;;;;7.25;7.25;;;;;18.53;78.31;99520.25;5060347;28;45521;-60
2021/10/31 11:15:13;;;;;;;;;2.50;2.50;;;;;18.78;77.73;99527.03;5059322;28;45769;-60
2021/10/31 11:17:41;;;;;;;;;3.50;3.50;;;;;19.24;75.69;99521.50;5059156;28;45343;-60
2021/10/31 11:20:08;;;;;;;;;2.00;2.00;;;;;19.15;75.30;99509.91;5051823;28;45247;-60
2021/10/31 11:22:35;;;;;;;;;3.00;3.00;;;;;18.95;76.19;99507.25;5048944;28;45461;-60
2021/10/31 11:25:02;;;;;;;;;3.00;3.00;;;;;18.76;76.69;99500.00;5053008;28;46078;-60